createdAt,value
2019-05-19T00:00:34.157Z,6.40
2019-05-19T00:03:04.138Z,7.30
2019-05-19T00:05:34.201Z,6.23
2019-05-19T00:08:03.950Z,7.03
2019-05-19T00:10:33.910Z,6.57
2019-05-19T00:13:03.659Z,6.10
2019-05-19T00:15:33.560Z,6.03
2019-05-19T00:18:03.388Z,6.00
2019-05-19T00:20:33.206Z,5.73
2019-05-19T00:23:03.216Z,5.93
2019-05-19T00:25:33.682Z,5.27
2019-05-19T00:28:03.890Z,5.37
2019-05-19T00:30:33.738Z,5.83
2019-05-19T00:33:03.535Z,5.87
2019-05-19T00:35:33.398Z,5.97
2019-05-19T00:38:03.228Z,5.90
2019-05-19T00:40:33.030Z,7.73
2019-05-19T00:43:02.915Z,5.47
2019-05-19T00:45:32.842Z,7.23
2019-05-19T00:48:02.942Z,4.87
2019-05-19T00:50:32.750Z,6.23
2019-05-19T00:53:02.755Z,4.63
2019-05-19T00:55:33.144Z,4.47
2019-05-19T00:58:04.281Z,4.97
2019-05-19T01:00:34.368Z,4.33
2019-05-19T01:03:04.123Z,4.30
2019-05-19T01:05:33.975Z,4.00
2019-05-19T01:08:03.832Z,3.87
2019-05-19T01:10:33.651Z,5.07
2019-05-19T01:13:03.453Z,3.73
2019-05-19T01:15:33.279Z,4.27
2019-05-19T01:18:03.228Z,4.43
2019-05-19T01:20:34.030Z,4.77
2019-05-19T01:23:04.283Z,4.13
2019-05-19T01:25:34.247Z,4.17
2019-05-19T01:28:04.022Z,3.87
2019-05-19T01:30:33.851Z,4.17
2019-05-19T01:33:03.667Z,4.20
2019-05-19T01:35:33.623Z,4.17
2019-05-19T01:38:03.424Z,3.53
2019-05-19T01:40:33.258Z,4.13
2019-05-19T01:43:03.092Z,4.13
2019-05-19T01:45:32.875Z,4.33
2019-05-19T01:48:02.927Z,5.43
2019-05-19T01:50:32.672Z,3.67
2019-05-19T01:53:02.476Z,3.53
2019-05-19T01:55:32.492Z,3.00
2019-05-19T01:58:02.334Z,4.10
2019-05-19T02:00:32.132Z,3.27
2019-05-19T02:03:01.966Z,3.43
2019-05-19T02:05:31.787Z,3.20
2019-05-19T02:08:01.701Z,3.00
2019-05-19T02:10:31.488Z,3.30
2019-05-19T02:13:01.313Z,3.63
2019-05-19T02:15:31.176Z,3.97
2019-05-19T02:18:01.000Z,3.17
2019-05-19T02:20:33.645Z,3.93
2019-05-19T02:23:02.446Z,3.40
2019-05-19T02:25:32.264Z,3.40
2019-05-19T02:28:02.158Z,3.87
2019-05-19T02:30:32.100Z,3.20
2019-05-19T02:33:01.916Z,3.47
2019-05-19T02:35:31.843Z,4.23
2019-05-19T02:38:01.674Z,3.30
2019-05-19T02:40:34.027Z,3.20
2019-05-19T02:43:04.460Z,3.37
2019-05-19T02:45:36.451Z,4.30
2019-05-19T02:48:07.649Z,3.50
2019-05-19T02:50:51.586Z,3.60
2019-05-19T02:53:11.475Z,5.83
2019-05-19T02:55:42.555Z,4.17
2019-05-19T02:58:13.629Z,4.73
2019-05-19T03:00:43.945Z,4.67
2019-05-19T03:03:14.063Z,4.60
2019-05-19T03:05:43.895Z,4.70
2019-05-19T03:08:13.832Z,5.07
2019-05-19T03:10:43.595Z,4.43
2019-05-19T03:13:13.415Z,5.83
2019-05-19T03:15:43.226Z,5.20
2019-05-19T03:18:13.027Z,4.13
2019-05-19T03:20:42.863Z,4.63
2019-05-19T03:23:12.750Z,4.60
2019-05-19T03:25:44.288Z,5.43
2019-05-19T03:28:14.236Z,4.83
2019-05-19T03:31:05.625Z,4.73
2019-05-19T03:33:37.255Z,4.83
2019-05-19T03:36:07.063Z,5.50
2019-05-19T03:38:36.880Z,4.83
2019-05-19T03:41:06.647Z,4.33
2019-05-19T03:43:36.497Z,4.03
2019-05-19T03:46:06.287Z,5.07
2019-05-19T03:48:36.201Z,4.73
2019-05-19T03:51:06.060Z,5.37
2019-05-19T03:53:35.885Z,4.53
2019-05-19T03:56:05.712Z,4.63
2019-05-19T03:58:35.549Z,5.53
2019-05-19T04:01:05.428Z,5.30
2019-05-19T04:03:35.253Z,5.27
2019-05-19T04:06:05.076Z,4.73
2019-05-19T04:08:34.996Z,5.10
2019-05-19T04:11:04.811Z,5.10
2019-05-19T04:13:34.651Z,5.20
2019-05-19T04:16:04.466Z,4.77
2019-05-19T04:18:34.463Z,5.50
2019-05-19T04:21:04.328Z,5.47
2019-05-19T04:23:34.099Z,5.40
2019-05-19T04:26:03.959Z,4.87
2019-05-19T04:28:33.780Z,4.90
2019-05-19T04:31:03.639Z,4.97
2019-05-19T04:33:34.531Z,4.70
2019-05-19T04:36:04.456Z,5.33
2019-05-19T04:38:34.282Z,5.60
2019-05-19T04:41:04.096Z,5.80
2019-05-19T04:43:33.966Z,5.57
2019-05-19T04:46:03.779Z,4.77
2019-05-19T04:48:33.749Z,5.87
2019-05-19T04:51:03.578Z,4.73
2019-05-19T04:53:33.468Z,4.53
2019-05-19T04:56:03.281Z,5.43
2019-05-19T04:58:33.085Z,4.80
2019-05-19T05:01:02.905Z,4.97
2019-05-19T05:03:32.672Z,5.00
2019-05-19T05:06:02.524Z,5.70
2019-05-19T05:08:32.444Z,5.37
2019-05-19T05:11:02.319Z,5.33
2019-05-19T05:13:32.198Z,5.60
2019-05-19T05:16:02.070Z,5.70
2019-05-19T05:18:31.930Z,5.63
2019-05-19T05:21:01.730Z,5.80
2019-05-19T05:23:31.522Z,5.63
2019-05-19T05:26:01.403Z,5.83
2019-05-19T05:28:31.159Z,5.07
2019-05-19T05:31:00.989Z,6.17
2019-05-19T05:33:30.845Z,5.33
2019-05-19T05:36:00.712Z,6.10
2019-05-19T05:38:30.584Z,5.70
2019-05-19T05:41:00.418Z,5.07
2019-05-19T05:43:30.206Z,5.70
2019-05-19T05:46:00.075Z,8.47
2019-05-19T05:48:29.859Z,5.60
2019-05-19T05:50:59.646Z,5.00
2019-05-19T05:53:29.555Z,4.77
2019-05-19T05:55:59.444Z,4.90
2019-05-19T05:58:29.388Z,5.27
2019-05-19T06:00:59.213Z,6.00
2019-05-19T06:03:28.997Z,5.83
2019-05-19T06:05:58.895Z,6.70
2019-05-19T06:08:28.711Z,5.53
2019-05-19T06:10:58.544Z,5.27
2019-05-19T06:13:28.379Z,5.30
2019-05-19T06:15:58.198Z,5.90
2019-05-19T06:18:27.996Z,5.80
2019-05-19T06:20:57.817Z,6.03
2019-05-19T06:23:27.674Z,7.13
2019-05-19T06:25:57.482Z,6.43
2019-05-19T06:28:27.293Z,5.50
2019-05-19T06:30:57.112Z,5.47
2019-05-19T06:33:26.980Z,5.23
2019-05-19T06:35:56.798Z,5.10
2019-05-19T06:38:26.582Z,5.13
2019-05-19T06:40:56.388Z,4.83
2019-05-19T06:43:26.493Z,6.33
2019-05-19T06:45:56.332Z,4.77
2019-05-19T06:48:26.127Z,5.90
2019-05-19T06:50:56.103Z,4.37
2019-05-19T06:53:25.942Z,4.87
2019-05-19T06:55:55.793Z,4.87
2019-05-19T06:58:25.678Z,4.37
2019-05-19T07:00:58.522Z,4.20
2019-05-19T07:03:26.923Z,4.77
2019-05-19T07:05:56.790Z,4.90
2019-05-19T07:08:26.658Z,4.03
2019-05-19T07:10:56.464Z,4.80
2019-05-19T07:13:26.307Z,4.87
2019-05-19T07:15:56.183Z,4.93
2019-05-19T07:18:26.008Z,5.30
2019-05-19T07:20:55.859Z,6.57
2019-05-19T07:23:28.327Z,4.53
2019-05-19T07:25:57.118Z,5.23
2019-05-19T07:28:26.999Z,3.70
2019-05-19T07:30:56.824Z,4.30
2019-05-19T07:33:26.570Z,4.83
2019-05-19T07:35:56.457Z,4.33
2019-05-19T07:38:26.257Z,4.40
2019-05-19T07:40:56.143Z,5.40
2019-05-19T07:43:25.997Z,4.30
2019-05-19T07:45:55.838Z,4.90
2019-05-19T07:48:25.669Z,4.57
2019-05-19T07:50:56.509Z,4.63
2019-05-19T07:53:26.308Z,4.53
2019-05-19T07:55:56.156Z,4.63
2019-05-19T07:58:25.982Z,4.60
2019-05-19T08:00:55.824Z,4.30
2019-05-19T08:03:25.656Z,4.33
2019-05-19T08:05:57.094Z,4.20
2019-05-19T08:08:27.160Z,4.13
2019-05-19T08:10:57.206Z,4.40
2019-05-19T08:13:27.019Z,3.87
2019-05-19T08:15:56.880Z,3.83
2019-05-19T08:18:26.662Z,3.53
2019-05-19T08:20:56.467Z,3.47
2019-05-19T08:23:26.337Z,2.87
2019-05-19T08:25:56.178Z,2.80
2019-05-19T08:28:26.026Z,3.03
2019-05-19T08:30:55.859Z,3.27
2019-05-19T08:33:25.721Z,2.63
2019-05-19T08:35:55.556Z,2.60
2019-05-19T08:38:25.335Z,2.50
2019-05-19T08:40:55.220Z,2.30
2019-05-19T08:43:25.096Z,2.00
2019-05-19T08:45:55.049Z,2.23
2019-05-19T08:48:24.956Z,2.80
2019-05-19T08:50:54.776Z,2.00
2019-05-19T08:53:25.635Z,1.87
2019-05-19T08:55:55.424Z,2.00
2019-05-19T08:58:25.215Z,2.47
2019-05-19T09:00:55.175Z,1.67
2019-05-19T09:03:24.981Z,2.00
2019-05-19T09:05:54.765Z,1.70
2019-05-19T09:08:24.602Z,2.87
2019-05-19T09:10:55.507Z,2.00
2019-05-19T09:13:25.267Z,1.60
2019-05-19T09:15:55.143Z,1.57
2019-05-19T09:18:24.998Z,2.33
2019-05-19T09:20:54.898Z,1.93
2019-05-19T09:23:24.736Z,1.83
2019-05-19T09:25:54.567Z,1.50
2019-05-19T09:28:24.391Z,1.60
2019-05-19T09:30:57.315Z,1.50
2019-05-19T09:33:27.067Z,1.53
2019-05-19T09:35:56.909Z,1.63
2019-05-19T09:38:26.768Z,1.57
2019-05-19T09:40:56.555Z,1.67
2019-05-19T09:43:26.448Z,1.87
2019-05-19T09:45:56.215Z,1.50
2019-05-19T09:48:26.023Z,2.03
2019-05-19T09:50:55.883Z,1.30
2019-05-19T09:53:25.792Z,1.60
2019-05-19T09:55:55.652Z,1.80
2019-05-19T09:58:25.448Z,1.87
2019-05-19T10:00:55.297Z,1.70
2019-05-19T10:03:25.165Z,1.80
2019-05-19T10:05:55.010Z,1.50
2019-05-19T10:08:34.479Z,1.93
2019-05-19T10:12:03.499Z,1.60
2019-05-19T10:14:33.331Z,1.53
2019-05-19T10:17:03.338Z,1.73
2019-05-19T10:19:33.127Z,1.40
2019-05-19T10:22:03.067Z,1.57
2019-05-19T10:24:32.912Z,2.30
2019-05-19T10:27:02.802Z,2.03
2019-05-19T10:29:32.771Z,1.27
2019-05-19T10:32:02.615Z,1.23
2019-05-19T10:34:32.452Z,2.60
2019-05-19T10:37:02.223Z,1.20
2019-05-19T10:39:32.076Z,1.40
2019-05-19T10:42:02.439Z,1.57
2019-05-19T10:44:32.654Z,1.50
2019-05-19T10:47:02.471Z,1.67
2019-05-19T10:49:32.334Z,1.97
2019-05-19T10:52:02.169Z,1.70
2019-05-19T10:54:32.041Z,1.83
2019-05-19T10:57:01.893Z,1.93
2019-05-19T10:59:31.659Z,2.10
2019-05-19T11:02:01.515Z,1.67
2019-05-19T11:04:31.407Z,2.00
2019-05-19T11:07:01.311Z,1.73
2019-05-19T11:09:31.332Z,1.60
2019-05-19T11:12:01.349Z,1.97
2019-05-19T11:14:31.148Z,1.50
2019-05-19T11:17:01.187Z,1.80
2019-05-19T11:19:30.939Z,1.70
2019-05-19T11:22:00.912Z,1.70
2019-05-19T11:24:30.822Z,2.80
2019-05-19T11:27:00.606Z,1.73
2019-05-19T11:29:30.461Z,1.70
2019-05-19T11:32:00.283Z,1.90
2019-05-19T11:34:30.078Z,2.10
2019-05-19T11:36:59.926Z,1.90
2019-05-19T11:39:29.686Z,2.00
2019-05-19T11:41:59.528Z,1.80
2019-05-19T11:44:29.378Z,1.93
2019-05-19T11:46:59.220Z,1.60
2019-05-19T11:49:29.056Z,1.67
2019-05-19T11:51:58.886Z,1.90
2019-05-19T11:54:28.682Z,1.60
2019-05-19T11:56:58.551Z,1.70
2019-05-19T11:59:28.342Z,1.60
2019-05-19T12:01:58.236Z,1.83
2019-05-19T12:04:28.020Z,2.00
2019-05-19T12:06:57.948Z,2.20
2019-05-19T12:09:27.801Z,2.43
2019-05-19T12:11:57.713Z,1.83
2019-05-19T12:14:28.475Z,2.07
2019-05-19T12:16:58.488Z,2.10
2019-05-19T12:19:28.619Z,2.00
2019-05-19T12:21:58.490Z,1.83
2019-05-19T12:24:28.306Z,2.23
2019-05-19T12:26:58.235Z,1.90
2019-05-19T12:29:28.135Z,1.50
2019-05-19T12:31:58.033Z,2.37
2019-05-19T12:34:27.832Z,2.10
2019-05-19T12:36:57.639Z,2.20
2019-05-19T12:39:27.439Z,2.10
2019-05-19T12:41:57.361Z,1.90
2019-05-19T12:44:27.245Z,2.83
2019-05-19T12:46:57.136Z,2.20
2019-05-19T12:49:27.001Z,1.87
2019-05-19T12:51:56.783Z,1.67
2019-05-19T12:54:26.734Z,2.50
2019-05-19T12:56:56.547Z,2.00
2019-05-19T12:59:26.364Z,1.83
2019-05-19T13:01:56.314Z,1.70
2019-05-19T13:04:26.107Z,1.97
2019-05-19T13:06:55.987Z,1.40
2019-05-19T13:09:25.879Z,3.20
2019-05-19T13:11:56.844Z,1.60
2019-05-19T13:14:26.738Z,1.73
2019-05-19T13:16:56.598Z,1.77
2019-05-19T13:19:26.497Z,1.50
2019-05-19T13:21:56.343Z,1.53
2019-05-19T13:24:26.236Z,2.03
2019-05-19T13:26:56.992Z,1.67
2019-05-19T13:29:26.946Z,1.63
2019-05-19T13:31:56.804Z,1.67
2019-05-19T13:34:26.740Z,1.60
2019-05-19T13:36:56.529Z,1.40
2019-05-19T13:39:26.421Z,1.50
2019-05-19T13:41:56.246Z,2.30
2019-05-19T13:44:26.123Z,1.90
2019-05-19T13:46:55.986Z,1.63
2019-05-19T13:49:25.959Z,1.60
2019-05-19T13:51:55.789Z,1.87
2019-05-19T13:54:25.626Z,1.50
2019-05-19T13:56:55.428Z,1.63
2019-05-19T13:59:25.407Z,1.80
2019-05-19T14:01:55.264Z,1.90
2019-05-19T14:04:25.134Z,2.13
2019-05-19T14:06:55.043Z,2.43
2019-05-19T14:09:24.934Z,2.73
2019-05-19T14:11:54.849Z,2.93
2019-05-19T14:14:24.643Z,3.07
2019-05-19T14:16:54.501Z,2.10
2019-05-19T14:19:24.383Z,2.10
2019-05-19T14:21:54.350Z,2.07
2019-05-19T14:24:24.241Z,2.00
2019-05-19T14:26:54.063Z,2.63
2019-05-19T14:29:23.922Z,2.70
2019-05-19T14:31:53.827Z,2.13
2019-05-19T14:34:23.636Z,2.00
2019-05-19T14:36:53.661Z,1.93
2019-05-19T14:39:23.559Z,2.30
2019-05-19T14:41:57.320Z,2.00
2019-05-19T14:44:27.209Z,2.13
2019-05-19T14:46:57.012Z,2.67
2019-05-19T14:49:26.864Z,2.03
2019-05-19T14:51:56.683Z,1.63
2019-05-19T14:54:26.542Z,2.23
2019-05-19T14:56:56.366Z,2.10
2019-05-19T14:59:26.191Z,2.40
2019-05-19T15:01:55.969Z,2.43
2019-05-19T15:04:25.783Z,2.20
2019-05-19T15:06:55.606Z,1.77
2019-05-19T15:09:25.473Z,2.30
2019-05-19T15:11:55.313Z,1.90
2019-05-19T15:14:25.257Z,3.00
2019-05-19T15:16:55.047Z,2.07
2019-05-19T15:19:24.814Z,2.97
2019-05-19T15:21:54.893Z,1.63
2019-05-19T15:24:24.772Z,2.10
2019-05-19T15:26:54.774Z,2.43
2019-05-19T15:29:24.598Z,2.07
2019-05-19T15:31:54.458Z,2.03
2019-05-19T15:34:24.278Z,1.80
2019-05-19T15:36:54.224Z,2.13
2019-05-19T15:39:24.012Z,2.07
2019-05-19T15:41:53.841Z,2.70
2019-05-19T15:44:23.689Z,1.93
2019-05-19T15:46:53.543Z,2.27
2019-05-19T15:49:23.489Z,4.23
2019-05-19T15:52:02.382Z,2.47
2019-05-19T15:54:24.852Z,2.20
2019-05-19T15:56:54.686Z,2.33
2019-05-19T15:59:24.614Z,1.73
2019-05-19T16:01:54.512Z,1.87
2019-05-19T16:04:24.344Z,2.33
2019-05-19T16:06:54.179Z,2.30
2019-05-19T16:09:24.074Z,2.43
2019-05-19T16:11:53.935Z,2.30
2019-05-19T16:14:23.798Z,2.03
2019-05-19T16:16:53.649Z,2.07
2019-05-19T16:19:23.501Z,1.93
2019-05-19T16:21:53.382Z,2.20
2019-05-19T16:24:23.310Z,2.60
2019-05-19T16:26:53.205Z,2.30
2019-05-19T16:29:22.964Z,2.33
2019-05-19T16:31:52.821Z,2.60
2019-05-19T16:34:22.646Z,2.40
2019-05-19T16:36:52.538Z,2.20
2019-05-19T16:39:22.357Z,2.23
2019-05-19T16:41:52.242Z,2.83
2019-05-19T16:44:22.173Z,2.00
2019-05-19T16:46:52.043Z,2.70
2019-05-19T16:49:21.875Z,2.73
2019-05-19T16:51:51.658Z,2.47
2019-05-19T16:54:26.331Z,2.60
2019-05-19T16:56:56.161Z,1.87
2019-05-19T16:59:26.005Z,2.37
2019-05-19T17:01:55.857Z,2.43
2019-05-19T17:04:25.733Z,2.50
2019-05-19T17:06:55.560Z,2.40
2019-05-19T17:09:25.449Z,2.30
2019-05-19T17:11:55.307Z,2.40
2019-05-19T17:14:26.884Z,2.27
2019-05-19T17:16:56.743Z,2.40
2019-05-19T17:19:26.595Z,2.00
2019-05-19T17:21:56.547Z,2.33
2019-05-19T17:24:26.374Z,2.67
2019-05-19T17:26:56.191Z,2.27
2019-05-19T17:29:26.019Z,4.00
2019-05-19T17:32:05.654Z,2.13
2019-05-19T17:34:27.596Z,4.43
2019-05-19T17:36:57.359Z,3.17
2019-05-19T17:39:27.197Z,3.00
2019-05-19T17:41:57.031Z,4.90
2019-05-19T17:44:26.940Z,18.97
2019-05-19T17:46:56.870Z,29.33
2019-05-19T17:49:26.730Z,41.87
2019-05-19T17:51:56.632Z,65.87
2019-05-19T17:54:26.548Z,70.97
2019-05-19T17:56:59.163Z,68.23
2019-05-19T17:59:29.210Z,65.97
2019-05-19T18:01:59.029Z,63.63
2019-05-19T18:04:28.927Z,74.77
2019-05-19T18:06:58.807Z,75.60
2019-05-19T18:09:28.699Z,67.87
2019-05-19T18:11:58.538Z,70.67
2019-05-19T18:14:28.512Z,70.20
2019-05-19T18:16:58.381Z,73.87
2019-05-19T18:19:28.262Z,64.90
2019-05-19T18:21:58.053Z,65.80
2019-05-19T18:24:27.863Z,68.17
2019-05-19T18:26:57.737Z,71.03
2019-05-19T18:29:31.318Z,59.07
2019-05-19T18:31:59.058Z,59.47
2019-05-19T18:34:28.882Z,59.87
2019-05-19T18:36:58.738Z,56.33
2019-05-19T18:39:28.551Z,53.97
2019-05-19T18:41:58.418Z,55.40
2019-05-19T18:44:28.264Z,48.67
2019-05-19T18:46:58.170Z,59.73
2019-05-19T18:49:28.013Z,53.13
2019-05-19T18:51:57.916Z,51.23
2019-05-19T18:54:27.820Z,50.03
2019-05-19T18:56:57.699Z,45.80
2019-05-19T18:59:27.662Z,50.30
2019-05-19T19:01:57.720Z,47.30
2019-05-19T19:04:27.592Z,46.60
2019-05-19T19:06:57.544Z,47.63
2019-05-19T19:09:27.428Z,45.50
2019-05-19T19:11:57.335Z,48.07
2019-05-19T19:14:27.803Z,51.83
2019-05-19T19:16:57.737Z,46.17
2019-05-19T19:19:27.714Z,49.47
2019-05-19T19:21:57.711Z,45.27
2019-05-19T19:24:27.579Z,45.63
2019-05-19T19:26:57.440Z,40.13
2019-05-19T19:29:27.365Z,41.23
2019-05-19T19:31:57.209Z,40.43
2019-05-19T19:34:27.076Z,41.13
2019-05-19T19:36:56.906Z,39.33
2019-05-19T19:39:26.782Z,41.83
2019-05-19T19:41:56.866Z,41.63
2019-05-19T19:44:26.739Z,39.20
2019-05-19T19:46:56.654Z,42.50
2019-05-19T19:49:26.513Z,40.47
2019-05-19T19:51:56.441Z,43.47
2019-05-19T19:54:26.407Z,38.87
2019-05-19T19:56:56.678Z,39.57
2019-05-19T19:59:26.591Z,35.67
2019-05-19T20:01:56.617Z,33.87
2019-05-19T20:04:26.510Z,37.33
2019-05-19T20:06:56.537Z,45.60
2019-05-19T20:09:26.739Z,45.03
2019-05-19T20:11:56.726Z,45.43
2019-05-19T20:14:26.921Z,44.97
2019-05-19T20:16:57.831Z,46.37
2019-05-19T20:19:28.747Z,50.83
2019-05-19T20:21:59.953Z,46.90
2019-05-19T20:24:31.612Z,44.93
2019-05-19T20:27:03.787Z,49.70
2019-05-19T20:29:35.721Z,46.27
2019-05-19T20:32:06.373Z,45.87
2019-05-19T20:34:36.523Z,47.03
2019-05-19T20:37:06.914Z,48.30
2019-05-19T20:39:36.791Z,47.03
2019-05-19T20:42:06.829Z,47.30
2019-05-19T20:44:36.726Z,47.60
2019-05-19T20:47:06.715Z,46.73
2019-05-19T20:49:36.962Z,46.53
2019-05-19T20:52:06.796Z,42.37
2019-05-19T20:54:36.683Z,47.73
2019-05-19T20:57:06.545Z,48.30
2019-05-19T20:59:36.354Z,43.10
2019-05-19T21:02:06.192Z,44.40
2019-05-19T21:04:36.061Z,43.70
2019-05-19T21:07:07.755Z,40.67
2019-05-19T21:09:37.484Z,41.17
2019-05-19T21:12:07.447Z,40.93
2019-05-19T21:14:37.462Z,40.73
2019-05-19T21:17:07.364Z,40.17
2019-05-19T21:19:37.237Z,34.47
2019-05-19T21:22:07.091Z,36.30
2019-05-19T21:24:36.945Z,36.03
2019-05-19T21:27:06.883Z,35.00
2019-05-19T21:29:36.846Z,35.50
2019-05-19T21:32:06.663Z,30.90
2019-05-19T21:34:36.505Z,31.47
2019-05-19T21:37:06.431Z,33.43
2019-05-19T21:39:36.217Z,31.10
2019-05-19T21:42:06.074Z,30.87
2019-05-19T21:44:35.898Z,26.23
2019-05-19T21:47:05.791Z,29.60
2019-05-19T21:49:35.683Z,27.87
2019-05-19T21:52:05.517Z,28.33
2019-05-19T21:54:35.387Z,27.67
2019-05-19T21:57:05.356Z,26.87
2019-05-19T21:59:35.226Z,25.10
2019-05-19T22:02:05.598Z,25.27
2019-05-19T22:04:35.486Z,23.17
2019-05-19T22:07:13.014Z,22.00
2019-05-19T22:09:42.954Z,24.03
2019-05-19T22:12:12.794Z,22.00
2019-05-19T22:14:42.709Z,23.73
2019-05-19T22:17:12.657Z,22.67
2019-05-19T22:19:42.530Z,21.77
2019-05-19T22:22:13.518Z,19.70
2019-05-19T22:24:43.311Z,18.83
2019-05-19T22:27:13.138Z,19.07
2019-05-19T22:29:43.085Z,19.23
2019-05-19T22:32:12.884Z,17.00
2019-05-19T22:34:42.658Z,18.13
2019-05-19T22:37:12.556Z,16.87
2019-05-19T22:39:42.331Z,18.37
2019-05-19T22:42:12.167Z,18.03
2019-05-19T22:44:42.036Z,16.93
2019-05-19T22:47:11.795Z,16.50
2019-05-19T22:49:41.662Z,15.27
2019-05-19T22:52:11.578Z,15.93
2019-05-19T22:54:41.403Z,14.87
2019-05-19T22:57:11.183Z,15.67
2019-05-19T22:59:41.019Z,16.07
2019-05-19T23:02:10.855Z,15.30
2019-05-19T23:04:40.664Z,16.27
2019-05-19T23:07:10.541Z,15.50
2019-05-19T23:09:40.344Z,15.67
2019-05-19T23:12:10.185Z,16.03
2019-05-19T23:14:40.060Z,15.40
2019-05-19T23:17:10.076Z,16.87
2019-05-19T23:19:39.975Z,17.03
2019-05-19T23:22:09.756Z,15.67
2019-05-19T23:24:39.620Z,15.77
2019-05-19T23:27:09.440Z,14.93
2019-05-19T23:29:39.245Z,16.77
2019-05-19T23:32:09.119Z,16.67
2019-05-19T23:34:38.914Z,17.53
2019-05-19T23:37:08.847Z,16.10
2019-05-19T23:39:38.716Z,16.47
2019-05-19T23:42:08.666Z,17.97
2019-05-19T23:44:38.434Z,17.80
2019-05-19T23:47:08.251Z,16.33
2019-05-19T23:49:38.181Z,17.20
2019-05-19T23:52:08.035Z,16.70
2019-05-19T23:54:37.872Z,16.57
2019-05-19T23:57:07.720Z,16.00
2019-05-19T23:59:37.592Z,17.27
